createdAt,value
2022-08-12T00:02:03.060Z,54.78
2022-08-12T00:06:25.290Z,55.65
2022-08-12T00:10:45.501Z,55.45
2022-08-12T00:15:05.915Z,55.81
2022-08-12T00:19:25.773Z,56.02
2022-08-12T00:23:45.467Z,56.51
2022-08-12T00:28:06.313Z,56.77
2022-08-12T00:32:36.186Z,56.55
2022-08-12T00:37:02.709Z,57.41
2022-08-12T00:41:34.714Z,57.51
2022-08-12T00:45:56.154Z,57.60
2022-08-12T00:49:58.582Z,58.08
2022-08-12T00:54:00.093Z,59.56
2022-08-12T00:58:06.022Z,59.41
2022-08-12T01:02:11.592Z,58.85
2022-08-12T01:06:36.669Z,58.59
2022-08-12T01:10:58.914Z,58.78
2022-08-12T01:15:01.670Z,59.30
2022-08-12T01:19:03.663Z,59.75
2022-08-12T01:23:18.029Z,58.61
2022-08-12T01:27:22.328Z,60.21
2022-08-12T01:31:23.833Z,60.08
2022-08-12T01:35:27.188Z,59.28
2022-08-12T01:40:33.192Z,60.02
2022-08-12T01:44:04.541Z,59.77
2022-08-12T01:48:25.488Z,58.97
2022-08-12T01:52:48.657Z,59.75
2022-08-12T01:56:55.940Z,59.69
2022-08-12T02:01:04.516Z,60.15
2022-08-12T02:06:00.719Z,60.48
2022-08-12T02:10:50.379Z,59.72
2022-08-12T02:15:07.076Z,60.51
2022-08-12T02:19:30.555Z,60.28
2022-08-12T02:23:34.657Z,60.54
2022-08-12T02:27:54.072Z,60.52
2022-08-12T02:31:57.334Z,61.91
2022-08-12T02:36:02.358Z,63.46
2022-08-12T02:40:04.753Z,62.67
2022-08-12T02:44:15.113Z,64.56
2022-08-12T02:48:33.976Z,65.86
2022-08-12T02:52:36.978Z,64.14
2022-08-12T02:56:41.551Z,64.93
2022-08-12T03:00:44.255Z,66.14
2022-08-12T03:04:56.597Z,64.27
2022-08-12T03:08:59.811Z,64.04
2022-08-12T03:13:04.128Z,64.31
2022-08-12T03:17:27.912Z,64.32
2022-08-12T03:21:57.892Z,67.78
2022-08-12T03:25:55.537Z,66.47
2022-08-12T03:29:57.871Z,68.36
2022-08-12T03:34:04.445Z,69.47
2022-08-12T03:38:08.864Z,68.43
2022-08-12T03:42:40.656Z,67.44
2022-08-12T03:47:03.936Z,68.27
2022-08-12T03:51:24.168Z,67.84
2022-08-12T03:55:43.925Z,69.12
2022-08-12T04:00:03.855Z,71.63
2022-08-12T04:04:05.719Z,70.25
2022-08-12T04:08:11.348Z,72.95
2022-08-12T04:12:33.264Z,72.19
2022-08-12T04:16:35.599Z,70.98
2022-08-12T04:20:37.285Z,70.35
2022-08-12T04:24:40.931Z,70.36
2022-08-12T04:28:43.196Z,71.10
2022-08-12T04:32:46.120Z,71.64
2022-08-12T04:36:48.548Z,73.19
2022-08-12T04:40:50.108Z,71.96
2022-08-12T04:44:51.843Z,71.71
2022-08-12T04:48:54.689Z,71.62
2022-08-12T04:52:56.545Z,71.30
2022-08-12T04:57:04.069Z,70.82
2022-08-12T05:01:12.628Z,69.27
2022-08-12T05:05:24.664Z,68.92
2022-08-12T05:09:26.105Z,67.67
2022-08-12T05:13:47.532Z,66.24
2022-08-12T05:17:49.191Z,65.81
2022-08-12T05:21:50.935Z,65.11
2022-08-12T05:25:56.455Z,64.52
2022-08-12T05:30:05.568Z,63.13
2022-08-12T05:34:14.665Z,61.32
2022-08-12T05:38:37.323Z,61.11
2022-08-12T05:42:39.119Z,60.21
2022-08-12T05:46:41.245Z,59.58
2022-08-12T05:50:45.280Z,57.45
2022-08-12T05:54:57.205Z,58.47
2022-08-12T05:59:01.333Z,58.07
2022-08-12T06:03:04.756Z,57.50
2022-08-12T06:07:37.265Z,56.82
2022-08-12T06:11:30.229Z,55.81
2022-08-12T06:15:35.711Z,55.39
2022-08-12T06:20:28.687Z,54.54
2022-08-12T06:23:58.628Z,54.04
2022-08-12T06:28:07.590Z,53.09
2022-08-12T06:32:09.810Z,52.14
2022-08-12T06:36:14.083Z,52.10
2022-08-12T06:40:41.233Z,51.19
2022-08-12T06:44:42.741Z,50.25
2022-08-12T06:48:44.283Z,49.21
2022-08-12T06:52:46.436Z,49.12
2022-08-12T06:57:03.757Z,48.31
2022-08-12T07:01:07.428Z,47.20
2022-08-12T07:05:09.469Z,47.30
2022-08-12T07:09:14.537Z,46.80
2022-08-12T07:14:11.199Z,45.84
2022-08-12T07:18:11.908Z,46.68
2022-08-12T07:22:13.520Z,46.52
2022-08-12T07:26:18.665Z,45.87
2022-08-12T07:30:20.189Z,44.00
2022-08-12T07:34:23.323Z,43.93
2022-08-12T07:38:30.472Z,43.60
2022-08-12T07:42:32.087Z,42.68
2022-08-12T07:46:37.538Z,42.03
2022-08-12T07:50:39.242Z,41.91
2022-08-12T07:54:40.739Z,41.28
2022-08-12T07:58:46.906Z,41.08
2022-08-12T08:02:49.319Z,39.70
2022-08-12T08:06:50.900Z,39.15
2022-08-12T08:11:17.327Z,38.81
2022-08-12T08:15:20.147Z,38.51
2022-08-12T08:19:26.800Z,38.15
2022-08-12T08:23:56.461Z,38.33
2022-08-12T08:28:02.040Z,36.74
2022-08-12T08:32:07.662Z,36.40
2022-08-12T08:36:16.164Z,36.18
2022-08-12T08:40:51.528Z,35.91
2022-08-12T08:44:57.964Z,36.07
2022-08-12T08:49:01.330Z,35.50
2022-08-12T08:53:02.818Z,35.37
2022-08-12T08:57:07.927Z,34.78
2022-08-12T09:01:09.348Z,35.57
2022-08-12T09:05:15.693Z,35.29
2022-08-12T09:09:18.533Z,35.23
2022-08-12T09:14:09.928Z,34.80
2022-08-12T09:17:57.689Z,33.47
2022-08-12T09:22:00.695Z,33.57
2022-08-12T09:30:41.191Z,33.84
2022-08-12T09:34:45.882Z,33.74
2022-08-12T09:38:58.769Z,33.29
2022-08-12T09:43:21.524Z,32.64
2022-08-12T09:47:29.608Z,32.90
2022-08-12T09:51:37.284Z,32.71
2022-08-12T09:56:06.633Z,32.44
2022-08-12T10:00:19.798Z,32.36
2022-08-12T10:04:30.801Z,32.22
2022-08-12T10:08:33.677Z,31.85
2022-08-12T10:13:07.122Z,31.36
2022-08-12T10:17:10.237Z,30.62
2022-08-12T10:21:16.415Z,30.94
2022-08-12T10:26:35.247Z,30.50
2022-08-12T10:30:03.289Z,29.59
2022-08-12T10:34:26.613Z,30.06
2022-08-12T10:38:37.677Z,29.65
2022-08-12T10:43:01.010Z,28.64
2022-08-12T10:47:26.430Z,30.35
2022-08-12T10:52:03.214Z,30.87
2022-08-12T10:55:55.473Z,30.92
2022-08-12T11:00:30.911Z,30.31
2022-08-12T11:04:41.405Z,28.58
2022-08-12T11:08:47.045Z,27.93
2022-08-12T11:12:58.643Z,28.15
2022-08-12T11:17:34.790Z,28.28
2022-08-12T11:21:56.769Z,28.09
2022-08-12T11:25:57.627Z,28.45
2022-08-12T11:30:05.904Z,27.54
2022-08-12T11:34:51.042Z,26.26
2022-08-12T11:38:30.424Z,26.26
2022-08-12T11:42:32.360Z,26.94
2022-08-12T11:46:38.441Z,26.99
2022-08-12T11:50:43.496Z,27.63
2022-08-12T11:54:50.942Z,27.30
2022-08-12T12:01:58.187Z,26.99
2022-08-12T12:03:17.332Z,27.27
2022-08-12T12:07:18.967Z,27.42
2022-08-12T12:11:21.706Z,27.26
2022-08-12T12:15:24.879Z,26.50
2022-08-12T12:19:28.403Z,26.83
2022-08-12T12:23:47.386Z,27.06
2022-08-12T12:28:04.394Z,26.69
2022-08-12T12:32:11.831Z,26.65
2022-08-12T12:36:20.697Z,25.94
2022-08-12T12:40:30.065Z,26.71
2022-08-12T12:44:42.177Z,27.28
2022-08-12T12:48:52.293Z,26.69
2022-08-12T12:52:54.283Z,26.24
2022-08-12T12:56:55.785Z,26.50
2022-08-12T13:01:04.474Z,27.14
2022-08-12T13:05:11.842Z,28.50
2022-08-12T13:09:15.477Z,28.90
2022-08-12T13:14:10.440Z,29.04
2022-08-12T13:18:02.035Z,29.85
2022-08-12T13:22:20.345Z,29.56
2022-08-12T13:26:23.021Z,29.71
2022-08-12T13:30:26.613Z,30.76
2022-08-12T13:34:34.373Z,30.09
2022-08-12T13:38:39.651Z,28.19
2022-08-12T13:42:41.344Z,29.39
2022-08-12T13:46:58.138Z,29.95
2022-08-12T13:51:00.719Z,30.12
2022-08-12T13:55:06.520Z,30.06
2022-08-12T13:59:08.802Z,30.09
2022-08-12T14:03:12.414Z,29.85
2022-08-12T14:07:13.999Z,30.03
2022-08-12T14:11:15.561Z,31.16
2022-08-12T14:15:17.075Z,31.64
2022-08-12T14:19:22.720Z,31.44
2022-08-12T14:24:05.415Z,31.45
2022-08-12T14:28:03.457Z,29.87
2022-08-12T14:32:07.798Z,27.72
2022-08-12T14:36:23.314Z,27.10
2022-08-12T14:40:30.184Z,26.90
2022-08-12T14:44:58.086Z,26.67
2022-08-12T14:48:55.066Z,28.76
2022-08-12T14:57:24.171Z,27.93
2022-08-12T15:01:44.600Z,27.66
2022-08-12T15:06:05.435Z,26.74
2022-08-12T15:10:09.265Z,27.05
2022-08-12T15:14:11.703Z,27.42
2022-08-12T15:18:22.714Z,27.13
2022-08-12T15:22:37.299Z,26.03
2022-08-12T15:26:42.343Z,27.60
2022-08-12T15:30:43.977Z,26.03
2022-08-12T15:34:46.660Z,25.86
2022-08-12T15:38:51.340Z,24.56
2022-08-12T15:42:54.438Z,23.98
2022-08-12T15:46:55.889Z,26.14
2022-08-12T15:50:57.618Z,26.89
2022-08-12T15:55:06.398Z,27.08
2022-08-12T15:59:15.393Z,26.59
2022-08-12T16:03:28.603Z,27.59
2022-08-12T16:07:49.405Z,27.76
2022-08-12T16:11:52.088Z,27.11
2022-08-12T16:16:02.988Z,28.40
2022-08-12T16:20:06.219Z,29.67
2022-08-12T16:24:08.261Z,29.44
2022-08-12T16:28:12.493Z,29.16
2022-08-12T16:32:19.369Z,29.99
2022-08-12T16:36:20.868Z,30.17
2022-08-12T16:40:22.362Z,30.86
2022-08-12T16:44:26.641Z,31.48
2022-08-12T16:48:38.689Z,31.68
2022-08-12T16:52:41.326Z,32.00
2022-08-12T16:56:51.126Z,30.83
2022-08-12T17:01:03.153Z,30.67
2022-08-12T17:05:14.921Z,29.63
2022-08-12T17:09:19.018Z,29.69
2022-08-12T17:13:21.047Z,28.70
2022-08-12T17:17:38.998Z,30.47
2022-08-12T17:22:01.204Z,29.59
2022-08-12T17:26:10.921Z,30.02
2022-08-12T17:30:13.978Z,29.28
2022-08-12T17:34:38.258Z,30.45
2022-08-12T17:38:40.565Z,30.31
2022-08-12T17:42:43.454Z,29.87
2022-08-12T17:46:45.468Z,29.99
2022-08-12T17:50:56.310Z,31.92
2022-08-12T17:54:59.381Z,32.85
2022-08-12T17:59:02.363Z,33.19
2022-08-12T18:03:04.516Z,34.08
2022-08-12T18:07:08.514Z,34.68
2022-08-12T18:12:03.353Z,34.74
2022-08-12T18:16:04.101Z,35.91
2022-08-12T18:20:15.513Z,36.01
2022-08-12T18:24:22.319Z,36.46
2022-08-12T18:28:29.019Z,36.45
2022-08-12T18:32:58.752Z,37.09
2022-08-12T18:36:59.552Z,38.69
2022-08-12T18:41:33.488Z,39.01
2022-08-12T18:45:47.344Z,39.17
2022-08-12T18:49:58.869Z,38.96
2022-08-12T18:54:06.008Z,38.96
2022-08-12T18:58:10.324Z,39.80
2022-08-12T19:02:22.147Z,40.48
2022-08-12T19:06:27.180Z,41.11
2022-08-12T19:10:33.680Z,41.44
2022-08-12T19:14:42.132Z,41.04
2022-08-12T19:18:44.675Z,41.81
2022-08-12T19:22:59.653Z,42.30
2022-08-12T19:27:10.296Z,42.68
2022-08-12T19:31:45.291Z,43.73
2022-08-12T19:36:07.794Z,43.86
2022-08-12T19:40:32.992Z,44.33
2022-08-12T19:44:37.754Z,44.11
2022-08-12T19:48:43.314Z,44.61
2022-08-12T19:52:44.845Z,44.50
2022-08-12T19:56:51.429Z,45.51
2022-08-12T20:00:54.877Z,45.66
2022-08-12T20:06:03.410Z,45.71
2022-08-12T20:09:18.313Z,46.06
2022-08-12T20:13:26.910Z,46.60
2022-08-12T20:17:36.299Z,46.38
2022-08-12T20:21:51.869Z,47.01
2022-08-12T20:26:01.866Z,47.24
2022-08-12T20:30:07.290Z,47.48
2022-08-12T20:34:08.895Z,47.86
2022-08-12T20:38:26.175Z,48.02
2022-08-12T20:42:31.940Z,48.28
2022-08-12T20:46:33.840Z,48.26
2022-08-12T20:50:36.524Z,48.98
2022-08-12T20:54:42.918Z,49.03
2022-08-12T20:58:50.897Z,49.21
2022-08-12T21:02:52.394Z,48.96
2022-08-12T21:06:57.955Z,48.21
2022-08-12T21:11:06.327Z,48.83
2022-08-12T21:15:22.878Z,48.93
2022-08-12T21:19:53.047Z,49.53
2022-08-12T21:23:49.596Z,49.12
2022-08-12T21:27:58.791Z,49.23
2022-08-12T21:32:40.165Z,49.83
2022-08-12T21:36:34.107Z,49.87
2022-08-12T21:40:36.944Z,50.11
2022-08-12T21:45:48.320Z,50.75
2022-08-12T21:49:04.781Z,50.93
2022-08-12T21:53:10.300Z,51.16
2022-08-12T21:57:15.766Z,51.59
2022-08-12T22:01:22.961Z,51.83
2022-08-12T22:05:42.863Z,52.30
2022-08-12T22:09:46.175Z,52.09
2022-08-12T22:14:02.030Z,52.67
2022-08-12T22:18:09.562Z,53.05
2022-08-12T22:22:12.317Z,53.37
2022-08-12T22:26:28.980Z,55.31
2022-08-12T22:30:55.342Z,54.15
2022-08-12T22:35:22.223Z,53.74
2022-08-12T22:39:30.724Z,55.89
2022-08-12T22:44:00.385Z,56.18
2022-08-12T22:48:03.269Z,55.15
2022-08-12T22:52:08.575Z,54.80
2022-08-12T22:56:10.219Z,54.56
2022-08-12T23:00:27.443Z,54.88
2022-08-12T23:04:34.579Z,54.78
2022-08-12T23:08:37.509Z,55.31
2022-08-12T23:13:00.309Z,55.20
2022-08-12T23:17:07.520Z,55.19
2022-08-12T23:21:24.504Z,55.34
2022-08-12T23:25:32.710Z,56.15
2022-08-12T23:30:17.402Z,57.08
2022-08-12T23:34:13.970Z,56.51
2022-08-12T23:38:30.225Z,56.42
2022-08-12T23:42:32.794Z,55.95
2022-08-12T23:46:34.272Z,56.03
2022-08-12T23:50:35.751Z,56.25
2022-08-12T23:54:44.375Z,56.25
2022-08-12T23:58:57.553Z,57.43
